Time;durP1;ratioP1;P1;durP2;ratioP2;P2;SDS_P1;SDS_P2;PMS_P1;PMS_P2;Temp;Humidity;BMP_temperature;BMP_pressure;BME280_temperature;BME280_humidity;BME280_pressure;Samples;Min_cycle;Max_cycle;Signal;HPM_P1;HPM_P2
2021/03/04 00:01:54;;;;;;;63.73;34.27;;;;;;;4.70;68.63;100290.48;147559;1147;104616;-70
2021/03/04 00:04:57;;;;;;;69.82;35.75;;;;;;;4.70;68.93;100287.00;147474;1147;105037;-72
2021/03/04 00:08:01;;;;;;;65.78;35.10;;;;;;;4.67;69.04;100282.77;147433;1146;104480;-71
2021/03/04 00:11:04;;;;;;;63.60;34.03;;;;;;;4.68;68.56;100284.47;147317;1147;104554;-77
2021/03/04 00:14:07;;;;;;;61.68;33.35;;;;;;;4.67;69.01;100276.65;147498;1147;104486;-75
2021/03/04 00:17:10;;;;;;;63.50;33.00;;;;;;;4.63;68.46;100273.39;147332;1147;104675;-75
2021/03/04 00:20:18;;;;;;;64.10;32.00;;;;;;;4.62;68.25;100269.08;147666;1147;104905;-75
2021/03/04 00:23:21;;;;;;;62.95;31.45;;;;;;;4.62;69.26;100262.92;147792;1147;104546;-78
2021/03/04 00:26:24;;;;;;;65.97;34.73;;;;;;;4.69;69.00;100258.88;147529;1146;104537;-74
2021/03/04 00:29:27;;;;;;;64.70;33.25;;;;;;;4.76;69.49;100249.53;147782;1147;104556;-76
2021/03/04 00:32:30;;;;;;;61.90;31.75;;;;;;;4.83;68.84;100249.90;147680;1148;104540;-73
2021/03/04 00:35:34;;;;;;;58.15;30.60;;;;;;;4.86;68.79;100250.52;147644;1147;104559;-73
2021/03/04 00:38:37;;;;;;;59.20;32.23;;;;;;;4.89;68.66;100242.36;147624;1146;104540;-76
2021/03/04 00:41:40;;;;;;;58.70;30.48;;;;;;;4.91;68.58;100242.25;147431;1147;104487;-74
2021/03/04 00:44:43;;;;;;;62.67;31.02;;;;;;;4.92;68.70;100228.05;147616;1147;105004;-75
2021/03/04 00:47:46;;;;;;;59.50;32.98;;;;;;;4.91;68.74;100215.81;147599;1147;104642;-76
2021/03/04 00:50:50;;;;;;;68.78;37.40;;;;;;;4.88;68.83;100206.29;147728;1148;104500;-78
2021/03/04 00:53:53;;;;;;;94.25;50.55;;;;;;;4.85;68.76;100210.97;147510;1147;104544;-75
2021/03/04 00:56:56;;;;;;;80.47;39.03;;;;;;;4.81;68.66;100198.95;147674;1147;104541;-75
2021/03/04 00:59:59;;;;;;;70.87;37.43;;;;;;;4.80;68.61;100197.28;147468;1147;104496;-78
2021/03/04 01:03:02;;;;;;;82.78;42.98;;;;;;;4.87;68.79;100201.14;147683;1148;104636;-74
2021/03/04 01:06:06;;;;;;;65.37;35.95;;;;;;;4.92;68.72;100191.03;147625;1148;104470;-75
2021/03/04 01:09:09;;;;;;;58.20;31.87;;;;;;;4.97;68.61;100183.60;147468;1147;104484;-76
2021/03/04 01:12:13;;;;;;;72.73;38.50;;;;;;;4.99;68.61;100176.39;147676;1147;104517;-75
2021/03/04 01:15:19;;;;;;;63.40;32.90;;;;;;;5.01;68.66;100171.82;147663;1147;104473;-75
2021/03/04 01:18:23;;;;;;;58.87;31.57;;;;;;;5.01;68.27;100165.70;147430;1147;104608;-74
2021/03/04 01:21:26;;;;;;;68.67;33.83;;;;;;;4.99;68.42;100163.17;147592;1147;104544;-72
2021/03/04 01:24:29;;;;;;;67.78;35.15;;;;;;;4.99;68.87;100162.33;147761;1147;104455;-73
2021/03/04 01:27:32;;;;;;;66.95;32.85;;;;;;;4.96;67.93;100158.11;147531;1148;104492;-72
2021/03/04 01:30:36;;;;;;;58.58;31.40;;;;;;;4.95;68.79;100153.80;147744;1147;104460;-72
2021/03/04 01:33:39;;;;;;;57.53;29.53;;;;;;;4.91;68.42;100152.35;147450;1147;104846;-74
2021/03/04 01:36:43;;;;;;;61.58;32.35;;;;;;;4.92;68.80;100138.98;147570;1147;104474;-72
2021/03/04 01:39:46;;;;;;;45.80;24.75;;;;;;;4.97;68.71;100138.65;147653;1147;104574;-72
2021/03/04 01:42:50;;;;;;;45.00;25.95;;;;;;;5.03;68.78;100139.97;147562;1147;104525;-73
2021/03/04 01:45:53;;;;;;;49.30;25.85;;;;;;;5.05;68.67;100136.23;147538;1148;104475;-72
2021/03/04 01:48:57;;;;;;;44.58;23.92;;;;;;;5.04;68.58;100126.64;147716;1146;104548;-72
2021/03/04 01:52:00;;;;;;;49.18;25.32;;;;;;;5.00;68.32;100124.34;147778;1147;104499;-72
2021/03/04 01:55:05;;;;;;;46.25;26.10;;;;;;;4.98;68.65;100123.61;147566;1146;104934;-75
2021/03/04 01:58:09;;;;;;;51.90;26.20;;;;;;;4.93;68.53;100116.05;147467;1146;104533;-74
2021/03/04 02:01:12;;;;;;;47.25;25.50;;;;;;;4.89;68.60;100114.62;147673;1147;104525;-76
2021/03/04 02:04:15;;;;;;;48.38;27.02;;;;;;;4.86;68.38;100107.75;147622;1147;104527;-74
2021/03/04 02:07:28;;;;;;;50.85;25.40;;;;;;;4.86;68.81;100106.91;147547;1148;104557;-76
2021/03/04 02:10:36;;;;;;;52.53;28.93;;;;;;;4.81;68.62;100099.36;147667;1148;104494;-75
2021/03/04 02:13:46;;;;;;;55.10;27.65;;;;;;;4.76;68.77;100101.50;147404;1147;104450;-74
2021/03/04 02:16:55;;;;;;;46.43;23.07;;;;;;;4.77;68.83;100086.48;147674;1147;104945;-75
2021/03/04 02:20:04;;;;;;;56.77;29.20;;;;;;;4.81;69.17;100083.50;147679;1147;104620;-73
2021/03/04 02:23:37;;;;;;;53.78;29.65;;;;;;;4.88;69.26;100083.84;147641;1147;104534;-75
2021/03/04 02:27:03;;;;;;;50.33;26.23;;;;;;;4.92;68.84;100075.53;147786;1146;104467;-74
2021/03/04 02:30:11;;;;;;;43.30;24.60;;;;;;;4.91;68.96;100067.75;147452;1146;104495;-75
2021/03/04 02:33:18;;;;;;;44.15;24.05;;;;;;;4.88;68.79;100060.05;147650;1147;104500;-73
2021/03/04 02:36:23;;;;;;;49.57;26.30;;;;;;;4.83;68.78;100055.13;147743;1147;104604;-75
2021/03/04 02:39:27;;;;;;;54.30;30.12;;;;;;;4.77;68.82;100060.05;147620;1148;104553;-73
2021/03/04 02:42:32;;;;;;;47.13;26.27;;;;;;;4.71;69.04;100051.66;147585;1147;104557;-72
2021/03/04 02:45:36;;;;;;;45.78;25.25;;;;;;;4.66;68.98;100048.52;147580;1146;104515;-72
2021/03/04 02:48:40;;;;;;;52.88;27.60;;;;;;;4.61;69.23;100049.84;147674;1146;104450;-71
2021/03/04 02:51:45;;;;;;;48.65;26.35;;;;;;;4.55;68.85;100040.59;147510;1147;104535;-72
2021/03/04 02:54:49;;;;;;;57.58;29.32;;;;;;;4.52;69.07;100040.81;147582;1146;104532;-72
2021/03/04 02:57:54;;;;;;;54.58;27.50;;;;;;;4.55;69.05;100032.66;147596;1148;104443;-72
2021/03/04 03:00:58;;;;;;;44.30;23.10;;;;;;;4.59;68.64;100038.55;147651;1147;104472;-74
2021/03/04 03:04:03;;;;;;;48.52;25.62;;;;;;;4.64;69.18;100029.30;147630;1147;104535;-72
2021/03/04 03:07:09;;;;;;;53.20;26.70;;;;;;;4.69;68.40;100029.77;147520;1147;104946;-72
2021/03/04 03:10:15;;;;;;;52.67;27.65;;;;;;;4.74;68.92;100024.13;147868;1147;104642;-74
2021/03/04 03:13:20;;;;;;;49.35;26.42;;;;;;;4.78;69.04;100008.88;147629;1147;104566;-73
2021/03/04 03:16:25;;;;;;;61.28;32.17;;;;;;;4.82;69.33;100010.31;147673;1146;104550;-75
2021/03/04 03:19:28;;;;;;;49.27;27.13;;;;;;;4.82;68.84;100008.50;147525;1147;104514;-76
2021/03/04 03:22:31;;;;;;;51.20;27.05;;;;;;;4.83;69.23;100004.05;147562;1146;104550;-75
2021/03/04 03:25:35;;;;;;;50.30;26.42;;;;;;;4.85;69.28;100002.12;147648;1146;104579;-74
2021/03/04 03:28:40;;;;;;;52.80;27.85;;;;;;;4.86;68.79;99998.52;147669;1147;104930;-71
2021/03/04 03:31:47;;;;;;;51.70;29.02;;;;;;;4.86;69.00;99986.14;147714;1147;104561;-73
2021/03/04 03:34:51;;;;;;;47.07;25.33;;;;;;;4.84;68.84;99976.66;147656;1147;104584;-73
2021/03/04 03:37:56;;;;;;;46.50;23.45;;;;;;;4.88;68.98;99967.52;147702;1147;104563;-75
2021/03/04 03:41:00;;;;;;;46.83;22.98;;;;;;;4.92;69.10;99974.23;147588;1147;104474;-73
2021/03/04 03:44:07;;;;;;;52.45;29.12;;;;;;;4.98;68.87;99972.90;147582;1146;104458;-73
2021/03/04 03:47:11;;;;;;;46.43;24.50;;;;;;;5.00;68.95;99966.51;147616;1148;104457;-74
2021/03/04 03:50:17;;;;;;;49.60;27.10;;;;;;;4.98;69.13;99963.16;147698;1147;104497;-73
2021/03/04 03:53:21;;;;;;;47.25;25.85;;;;;;;4.97;68.82;99958.84;148115;1146;104463;-73
2021/03/04 03:56:25;;;;;;;46.30;25.25;;;;;;;4.93;68.76;99960.06;148146;1147;104503;-73
2021/03/04 03:59:29;;;;;;;49.45;25.75;;;;;;;4.90;68.73;99966.42;147996;1147;104528;-72
2021/03/04 04:02:34;;;;;;;48.48;25.23;;;;;;;4.85;68.86;99962.46;147743;1147;104541;-73
2021/03/04 04:05:37;;;;;;;48.45;26.33;;;;;;;4.79;68.93;99957.67;147833;1147;104470;-72
2021/03/04 04:08:41;;;;;;;49.95;27.37;;;;;;;4.75;68.85;99958.89;147712;1148;104586;-72
2021/03/04 04:11:44;;;;;;;48.33;26.62;;;;;;;4.71;69.05;99964.44;148200;1146;104566;-73
2021/03/04 04:14:47;;;;;;;49.83;27.07;;;;;;;4.68;69.27;99956.74;147911;1147;104470;-73
2021/03/04 04:17:51;;;;;;;58.75;32.67;;;;;;;4.69;68.86;99953.13;147664;1147;104465;-73
2021/03/04 04:20:55;;;;;;;54.63;31.77;;;;;;;4.72;68.88;99947.60;147860;1148;104517;-74
2021/03/04 04:23:59;;;;;;;42.67;26.73;;;;;;;4.72;68.99;99947.60;147739;1147;104635;-75
2021/03/04 04:27:02;;;;;;;52.70;29.93;;;;;;;4.72;68.98;99944.95;147817;1147;104471;-72
2021/03/04 04:30:08;;;;;;;58.27;32.13;;;;;;;4.69;69.12;99947.83;147758;1147;104448;-73
2021/03/04 04:33:12;;;;;;;54.45;29.40;;;;;;;4.68;69.54;99940.88;147794;1146;104591;-73
2021/03/04 04:36:15;;;;;;;68.30;34.73;;;;;;;4.66;68.96;99928.77;147801;1145;104545;-73
2021/03/04 04:39:19;;;;;;;69.80;35.80;;;;;;;4.60;69.30;99927.45;147770;1148;104937;-73
2021/03/04 04:42:22;;;;;;;66.77;32.08;;;;;;;4.58;68.91;99923.23;147808;1147;104545;-73
2021/03/04 04:45:26;;;;;;;177.50;77.93;;;;;;;4.52;69.59;99916.63;147769;1147;104506;-79
2021/03/04 04:48:29;;;;;;;91.92;43.42;;;;;;;4.49;69.67;99919.55;147766;1147;104901;-73
2021/03/04 04:51:34;;;;;;;84.50;39.63;;;;;;;4.45;69.14;99918.11;147787;1147;104498;-73
2021/03/04 04:54:37;;;;;;;77.03;37.48;;;;;;;4.44;68.94;99913.77;147727;1147;104568;-73
2021/03/04 04:57:41;;;;;;;59.03;28.73;;;;;;;4.47;69.67;99916.19;147661;1147;104576;-72
2021/03/04 05:00:44;;;;;;;55.12;28.27;;;;;;;4.49;69.16;99908.97;147742;1146;104473;-74
2021/03/04 05:03:47;;;;;;;59.17;27.87;;;;;;;4.51;69.21;99893.84;147704;1147;104972;-72
2021/03/04 05:06:50;;;;;;;65.47;34.83;;;;;;;4.51;69.23;99904.41;147776;1147;104550;-71
2021/03/04 05:09:53;;;;;;;67.20;36.43;;;;;;;4.52;69.25;99913.99;147741;1147;104634;-71
2021/03/04 05:12:57;;;;;;;355.80;199.10;;;;;;;4.51;69.38;99909.69;147778;1146;104525;-73
2021/03/04 05:16:00;;;;;;;598.10;362.48;;;;;;;4.50;69.31;99906.22;147771;1147;104478;-72
2021/03/04 05:19:03;;;;;;;274.65;143.43;;;;;;;4.49;69.58;99901.87;147774;1147;104460;-74
2021/03/04 05:22:07;;;;;;;245.12;140.73;;;;;;;4.51;69.31;99902.59;147807;1147;104492;-73
2021/03/04 05:25:12;;;;;;;334.45;121.95;;;;;;;4.56;69.79;99894.31;147725;1147;104564;-73
2021/03/04 05:28:15;;;;;;;205.55;81.42;;;;;;;4.65;69.61;99900.64;147750;1147;104591;-73
2021/03/04 05:31:18;;;;;;;689.08;344.35;;;;;;;4.80;69.65;99898.58;147752;1147;104531;-73
2021/03/04 05:34:21;;;;;;;274.05;111.45;;;;;;;4.94;69.68;99903.56;147722;1147;104490;-76
2021/03/04 05:37:25;;;;;;;426.23;215.47;;;;;;;5.05;69.82;99885.02;147733;1147;104593;-73
2021/03/04 05:40:28;;;;;;;238.07;106.87;;;;;;;5.17;70.30;99908.77;147749;1147;104582;-72
2021/03/04 05:43:31;;;;;;;234.87;92.50;;;;;;;5.20;69.34;99890.84;147836;1147;104541;-73
2021/03/04 05:46:37;;;;;;;136.57;62.90;;;;;;;5.25;69.42;99890.45;147643;1146;104450;-73
2021/03/04 05:49:47;;;;;;;237.83;95.90;;;;;;;5.23;69.58;99887.09;147748;1146;104458;-74
2021/03/04 05:52:56;;;;;;;171.87;72.97;;;;;;;5.20;69.71;99897.95;147530;1147;104450;-77
2021/03/04 05:56:00;;;;;;;189.82;75.78;;;;;;;5.17;70.07;99895.55;147720;1146;104668;-70
2021/03/04 05:59:06;;;;;;;124.02;53.58;;;;;;;5.21;69.99;99889.03;147703;1147;104558;-71
2021/03/04 06:02:10;;;;;;;81.17;41.33;;;;;;;5.27;69.56;99893.80;147658;1146;104540;-68
2021/03/04 06:05:15;;;;;;;80.53;41.77;;;;;;;5.38;69.58;99885.81;147699;1148;104858;-75
2021/03/04 06:08:18;;;;;;;48.42;28.47;;;;;;;5.46;69.66;99882.52;147653;1147;104541;-72
2021/03/04 06:11:23;;;;;;;55.07;29.17;;;;;;;5.52;70.29;99900.52;147719;1147;104586;-72
2021/03/04 06:14:27;;;;;;;50.25;27.93;;;;;;;5.57;69.93;99894.86;147715;1147;104895;-72
2021/03/04 06:17:30;;;;;;;48.47;27.57;;;;;;;5.62;70.28;99892.64;147570;1147;104556;-72
2021/03/04 06:20:42;;;;;;;48.15;25.68;;;;;;;5.63;70.12;99894.33;147651;1147;104469;-71
2021/03/04 06:23:46;;;;;;;48.37;24.87;;;;;;;5.64;70.17;99885.41;147819;1147;104840;-72
2021/03/04 06:26:55;;;;;;;51.92;27.17;;;;;;;5.72;69.87;99877.67;147680;1147;104602;-71
2021/03/04 06:30:01;;;;;;;142.85;63.68;;;;;;;5.85;69.62;99874.80;147838;1147;104550;-70
2021/03/04 06:33:07;;;;;;;282.33;143.73;;;;;;;5.94;70.34;99887.25;147767;1146;104652;-72
2021/03/04 06:36:15;;;;;;;69.67;35.75;;;;;;;6.01;70.46;99899.02;147742;1147;104553;-71
2021/03/04 06:39:18;;;;;;;75.45;37.95;;;;;;;6.05;69.54;99910.20;147794;1147;104544;-70
2021/03/04 06:42:23;;;;;;;75.83;42.17;;;;;;;6.10;70.49;99900.02;147425;1147;104700;-71
2021/03/04 06:45:31;;;;;;;180.05;108.40;;;;;;;6.10;69.54;99892.08;147560;1146;104566;-72
2021/03/04 06:48:35;;;;;;;53.60;29.72;;;;;;;6.07;69.42;99898.48;147684;1147;104486;-71
2021/03/04 06:51:44;;;;;;;59.03;31.00;;;;;;;6.04;70.64;99901.42;147807;1148;104451;-71
2021/03/04 06:54:47;;;;;;;49.60;26.37;;;;;;;6.03;70.59;99917.44;147816;1146;104457;-71
2021/03/04 06:58:01;;;;;;;64.87;39.35;;;;;;;6.08;69.90;99909.91;147699;1147;104537;-74
2021/03/04 07:01:09;;;;;;;45.75;25.52;;;;;;;6.15;70.26;99924.31;147767;1147;104542;-76
2021/03/04 07:04:16;;;;;;;52.53;28.73;;;;;;;6.15;70.31;99926.13;147779;1147;104447;-72
2021/03/04 07:07:22;;;;;;;45.73;25.52;;;;;;;6.12;70.54;99918.44;147414;1147;105018;-71
2021/03/04 07:10:27;;;;;;;43.00;26.05;;;;;;;6.10;70.84;99929.16;147585;1147;106146;-74
2021/03/04 07:13:32;;;;;;;49.98;28.87;;;;;;;6.07;70.72;99914.38;147700;1147;104660;-71
2021/03/04 07:16:39;;;;;;;65.52;36.90;;;;;;;6.14;69.82;99914.70;147755;1148;104450;-74
2021/03/04 07:19:47;;;;;;;48.95;26.87;;;;;;;6.27;70.99;99909.16;147636;1146;104487;-72
2021/03/04 07:22:50;;;;;;;47.08;26.65;;;;;;;6.41;69.55;99915.89;147161;1147;104500;-71
2021/03/04 07:25:55;;;;;;;46.05;28.77;;;;;;;6.50;70.17;99909.79;147309;1147;104887;-72
2021/03/04 07:29:02;;;;;;;43.40;25.85;;;;;;;6.49;69.21;99911.61;147313;1147;104543;-71
2021/03/04 07:32:09;;;;;;;52.53;31.85;;;;;;;6.57;70.72;99910.10;147721;1147;104641;-72
2021/03/04 07:35:14;;;;;;;67.03;42.97;;;;;;;6.56;70.35;99913.71;147365;1148;104543;-73
2021/03/04 07:38:26;;;;;;;50.40;28.52;;;;;;;6.53;70.55;99920.13;147602;1147;104518;-73
2021/03/04 07:41:42;;;;;;;46.55;25.52;;;;;;;6.57;69.41;99916.23;147461;1147;104455;-72
2021/03/04 07:44:46;;;;;;;58.80;33.57;;;;;;;6.57;70.19;99920.70;147715;1148;104725;-72
2021/03/04 07:47:49;;;;;;;49.83;29.90;;;;;;;6.63;70.49;99907.73;147767;1147;104454;-72
2021/03/04 07:51:00;;;;;;;48.42;28.57;;;;;;;6.63;68.70;99915.69;147794;1146;104468;-72
2021/03/04 07:54:03;;;;;;;52.62;29.40;;;;;;;6.64;69.56;99909.42;147887;1146;104568;-71
2021/03/04 07:57:09;;;;;;;107.33;58.03;;;;;;;6.67;68.89;99913.60;147696;1147;104537;-72
2021/03/04 08:00:15;;;;;;;62.43;35.25;;;;;;;6.72;69.59;99903.44;147440;1147;104445;-72
2021/03/04 08:03:18;;;;;;;58.20;32.63;;;;;;;6.66;69.66;99941.11;147338;1147;104539;-72
2021/03/04 08:06:21;;;;;;;68.52;38.00;;;;;;;6.65;69.95;99929.64;147785;1147;104467;-74
2021/03/04 08:09:30;;;;;;;52.67;29.23;;;;;;;6.71;69.07;99916.83;147458;1146;104470;-72
2021/03/04 08:12:43;;;;;;;47.17;28.02;;;;;;;6.55;69.03;99942.05;147378;1148;104513;-72
2021/03/04 08:15:46;;;;;;;50.40;29.73;;;;;;;6.55;68.50;99928.78;147630;1146;104555;-72
2021/03/04 08:18:57;;;;;;;53.90;31.67;;;;;;;6.60;69.67;99936.32;147339;1147;104544;-74
2021/03/04 08:22:07;;;;;;;72.37;39.85;;;;;;;6.59;69.54;99932.02;147702;1146;104585;-72
2021/03/04 08:25:13;;;;;;;45.38;27.60;;;;;;;6.54;68.69;99935.05;147816;1147;104556;-72
2021/03/04 08:28:24;;;;;;;50.05;29.70;;;;;;;6.56;68.96;99951.66;147715;1146;104547;-72
2021/03/04 08:31:29;;;;;;;138.60;66.70;;;;;;;6.55;68.33;99949.16;147774;1146;104628;-72
2021/03/04 08:34:38;;;;;;;67.37;38.00;;;;;;;6.49;68.36;99961.97;147817;1147;104549;-73
2021/03/04 08:37:42;;;;;;;86.82;46.18;;;;;;;6.41;67.27;99942.39;147815;1147;104469;-72
2021/03/04 08:40:47;;;;;;;66.02;32.95;;;;;;;6.46;67.53;99942.84;147775;1147;104477;-72
2021/03/04 08:43:51;;;;;;;50.23;27.42;;;;;;;6.46;67.39;99938.38;147754;1146;104490;-73
2021/03/04 08:46:54;;;;;;;106.67;50.65;;;;;;;6.55;67.59;99947.34;147714;1147;104570;-72
2021/03/04 08:49:59;;;;;;;61.18;32.70;;;;;;;6.61;67.28;99949.45;147416;1146;104423;-74
2021/03/04 08:53:07;;;;;;;54.63;31.12;;;;;;;6.58;66.49;99954.17;148004;1147;104543;-74
2021/03/04 08:56:10;;;;;;;53.77;30.83;;;;;;;6.54;66.35;99947.47;147313;1147;104553;-72
2021/03/04 08:59:22;;;;;;;56.95;30.48;;;;;;;6.61;67.75;99954.75;147509;1147;104457;-72
2021/03/04 09:02:24;;;;;;;;;;;;;;;6.62;65.97;99961.74;147780;1147;104460;-72
2021/03/04 09:05:28;;;;;;;48.52;29.15;;;;;;;6.44;66.91;99977.42;147456;1146;104578;-73
2021/03/04 09:08:34;;;;;;;51.73;30.47;;;;;;;6.36;67.44;99964.01;147495;1146;104549;-73
2021/03/04 09:11:38;;;;;;;52.63;30.90;;;;;;;6.37;67.21;99940.98;147499;1147;104486;-73
2021/03/04 09:14:41;;;;;;;49.70;28.05;;;;;;;6.33;66.78;99953.66;147770;1147;104540;-75
2021/03/04 09:17:45;;;;;;;50.40;28.57;;;;;;;6.28;67.58;99954.08;147775;1147;104930;-75
2021/03/04 09:20:49;;;;;;;51.17;29.73;;;;;;;6.39;67.67;99944.34;147813;1147;104489;-72
2021/03/04 09:23:53;;;;;;;54.48;29.10;;;;;;;6.54;67.15;99947.47;147789;1147;104556;-72
2021/03/04 09:26:57;;;;;;;54.63;29.65;;;;;;;6.68;66.79;99937.34;147772;1147;104809;-72
2021/03/04 09:30:00;;;;;;;52.23;29.95;;;;;;;6.79;67.00;99935.53;147717;1147;104900;-72
2021/03/04 09:33:03;;;;;;;47.78;28.50;;;;;;;6.84;65.39;99946.58;147372;1147;104567;-72
2021/03/04 09:36:07;;;;;;;48.00;29.20;;;;;;;6.88;66.27;99935.55;147510;1147;104442;-77
2021/03/04 09:39:10;;;;;;;44.15;28.02;;;;;;;6.85;64.97;99945.59;147727;1146;104538;-73
2021/03/04 09:42:16;;;;;;;47.27;29.45;;;;;;;6.64;65.42;99943.02;147796;1147;104550;-74
2021/03/04 09:45:19;;;;;;;45.25;25.88;;;;;;;6.66;65.91;99944.59;147724;1147;104503;-72
2021/03/04 09:48:33;;;;;;;48.20;27.32;;;;;;;6.80;66.70;99939.87;147663;1147;104536;-73
2021/03/04 09:51:38;;;;;;;45.78;27.77;;;;;;;6.92;64.57;99941.42;147815;1147;104662;-76
2021/03/04 09:54:41;;;;;;;51.58;30.25;;;;;;;6.90;65.62;99947.85;147656;1147;104393;-72
2021/03/04 09:57:45;;;;;;;49.53;29.67;;;;;;;6.94;64.75;99943.95;147710;1147;104545;-72
2021/03/04 10:00:57;;;;;;;50.45;30.20;;;;;;;7.03;65.51;99937.82;147757;1147;104486;-72
2021/03/04 10:04:05;;;;;;;48.17;29.50;;;;;;;6.99;64.95;99934.59;147758;1147;104614;-72
2021/03/04 10:07:15;;;;;;;52.73;31.77;;;;;;;7.08;66.32;99931.13;147814;1147;104514;-72
2021/03/04 10:10:20;;;;;;;50.15;30.88;;;;;;;7.24;66.00;99948.31;147696;1148;104451;-68
2021/03/04 10:13:29;;;;;;;50.73;29.90;;;;;;;7.21;64.77;99946.75;147691;1147;104536;-74
2021/03/04 10:16:33;;;;;;;48.60;29.93;;;;;;;7.24;65.31;99959.76;147744;1148;104594;-72
2021/03/04 10:19:36;;;;;;;47.75;30.72;;;;;;;7.07;65.99;99953.31;147753;1148;104545;-72
2021/03/04 10:22:39;;;;;;;45.97;27.57;;;;;;;6.98;66.14;99962.09;147754;1146;104543;-72
2021/03/04 10:25:43;;;;;;;44.90;27.33;;;;;;;6.98;65.19;99951.48;147409;1147;104595;-72
2021/03/04 10:28:46;;;;;;;47.85;27.67;;;;;;;7.11;65.25;99953.05;147267;1147;104451;-72
2021/03/04 10:31:50;;;;;;;48.63;29.70;;;;;;;7.20;65.27;99953.05;147460;1148;104532;-69
2021/03/04 10:34:53;;;;;;;46.37;28.47;;;;;;;7.35;65.84;99949.97;147662;1147;104701;-73
2021/03/04 10:37:56;;;;;;;49.40;28.83;;;;;;;7.34;64.87;99941.18;147747;1148;104518;-71
2021/03/04 10:40:59;;;;;;;44.55;27.58;;;;;;;7.37;64.39;99956.84;147730;1147;104473;-73
2021/03/04 10:44:03;;;;;;;45.95;28.98;;;;;;;7.32;65.05;99951.09;147791;1146;104938;-75
2021/03/04 10:47:06;;;;;;;52.03;30.43;;;;;;;7.31;64.98;99946.75;147799;1147;104624;-74
2021/03/04 10:50:13;;;;;;;50.08;31.02;;;;;;;7.27;64.70;99955.97;147737;1147;104612;-73
2021/03/04 10:53:16;;;;;;;50.03;30.02;;;;;;;7.24;63.98;99945.66;147787;1147;104518;-72
2021/03/04 10:56:19;;;;;;;50.00;30.50;;;;;;;7.24;64.57;99945.66;147614;1147;104550;-72
2021/03/04 10:59:23;;;;;;;50.88;31.42;;;;;;;7.13;64.17;99943.13;147704;1147;104457;-72
2021/03/04 11:02:26;;;;;;;45.50;29.27;;;;;;;7.16;64.73;99938.39;147774;1147;104464;-71
2021/03/04 11:05:30;;;;;;;47.65;27.98;;;;;;;7.12;63.71;99944.09;147584;1147;104628;-72
2021/03/04 11:08:33;;;;;;;45.73;27.40;;;;;;;7.14;65.27;99944.80;147425;1147;104519;-72
2021/03/04 11:11:36;;;;;;;46.42;29.52;;;;;;;7.23;64.93;99941.31;147736;1146;104502;-73
2021/03/04 11:14:39;;;;;;;45.60;28.45;;;;;;;7.19;63.83;99953.19;147357;1147;104549;-73
2021/03/04 11:17:42;;;;;;;46.33;28.38;;;;;;;7.11;65.16;99942.44;147542;1147;104600;-72
2021/03/04 11:20:46;;;;;;;49.23;28.85;;;;;;;6.95;63.56;99941.16;147385;1147;104529;-72
2021/03/04 11:23:49;;;;;;;53.50;34.00;;;;;;;6.83;65.47;99932.49;147725;1147;104541;-72
2021/03/04 11:26:52;;;;;;;44.70;28.80;;;;;;;6.77;65.47;99938.31;147536;1147;104585;-72
2021/03/04 11:29:55;;;;;;;65.17;36.55;;;;;;;6.60;65.18;99953.09;147735;1146;104550;-73
2021/03/04 11:32:58;;;;;;;48.50;29.95;;;;;;;6.40;64.76;99938.09;147760;1147;104525;-74
2021/03/04 11:36:01;;;;;;;46.30;29.12;;;;;;;6.28;65.54;99934.70;147684;1147;104473;-72
2021/03/04 11:39:05;;;;;;;47.48;28.80;;;;;;;6.16;65.03;99933.09;147601;1147;104550;-73
2021/03/04 11:42:09;;;;;;;45.88;26.87;;;;;;;6.09;66.00;99933.63;147762;1147;104562;-75
2021/03/04 11:45:13;;;;;;;44.70;26.23;;;;;;;6.05;66.25;99934.03;147706;1147;104507;-72
2021/03/04 11:48:17;;;;;;;46.90;28.32;;;;;;;6.06;65.13;99936.56;147758;1147;104448;-72
2021/03/04 11:51:20;;;;;;;52.05;32.70;;;;;;;6.06;66.25;99930.40;147781;1147;104535;-75
2021/03/04 11:54:23;;;;;;;49.53;29.80;;;;;;;6.01;65.90;99936.10;147796;1147;104538;-73
2021/03/04 11:57:27;;;;;;;47.93;28.50;;;;;;;5.95;65.16;99933.09;147751;1148;104528;-72
2021/03/04 12:00:30;;;;;;;58.13;33.67;;;;;;;5.84;66.40;99936.67;147709;1146;104559;-72
2021/03/04 12:03:33;;;;;;;49.80;30.00;;;;;;;5.79;66.22;99936.22;147281;1147;104489;-73
2021/03/04 12:06:37;;;;;;;180.75;89.72;;;;;;;5.68;66.37;99934.50;147707;1147;104625;-72
2021/03/04 12:09:40;;;;;;;175.45;82.57;;;;;;;5.68;65.95;99930.03;147652;1147;104624;-72
2021/03/04 12:12:43;;;;;;;323.25;141.47;;;;;;;5.71;66.24;99931.57;147722;1147;104552;-71
2021/03/04 12:15:46;;;;;;;353.90;144.27;;;;;;;5.70;66.22;99929.91;147375;1148;104546;-74
2021/03/04 12:18:50;;;;;;;257.90;103.15;;;;;;;5.63;65.81;99934.03;147752;1148;104495;-71
2021/03/04 12:21:53;;;;;;;281.02;122.62;;;;;;;5.55;66.00;99932.03;147710;1147;104543;-72
2021/03/04 12:24:56;;;;;;;385.07;169.55;;;;;;;5.56;66.41;99927.56;147686;1147;104592;-74
2021/03/04 12:27:59;;;;;;;410.73;183.95;;;;;;;5.62;65.95;99927.91;147789;1147;104466;-71
2021/03/04 12:31:03;;;;;;;109.37;51.23;;;;;;;5.62;66.22;99922.62;147694;1147;104561;-71
2021/03/04 12:34:06;;;;;;;181.70;83.90;;;;;;;5.61;66.03;99928.03;147657;1147;104532;-73
2021/03/04 12:37:09;;;;;;;184.50;100.27;;;;;;;5.47;66.17;99932.67;147284;1146;104562;-72
2021/03/04 12:40:15;;;;;;;87.80;48.97;;;;;;;5.43;66.60;99919.84;147388;1148;104566;-72
2021/03/04 12:43:18;;;;;;;68.35;38.92;;;;;;;5.39;66.48;99929.84;147803;1146;104546;-71
2021/03/04 12:46:22;;;;;;;52.07;31.13;;;;;;;5.25;66.26;99916.91;147615;1147;104547;-73
2021/03/04 12:49:25;;;;;;;64.82;35.68;;;;;;;5.17;66.33;99929.92;147818;1147;104546;-78
2021/03/04 12:52:28;;;;;;;48.50;28.75;;;;;;;5.09;66.32;99931.39;147610;1147;104522;-72
2021/03/04 12:55:31;;;;;;;69.20;40.33;;;;;;;5.15;66.15;99930.05;147563;1147;104542;-72
2021/03/04 12:58:35;;;;;;;69.03;40.70;;;;;;;5.22;65.80;99920.65;147507;1146;104545;-70
2021/03/04 13:01:39;;;;;;;48.48;29.20;;;;;;;5.30;65.64;99904.97;147653;1147;104550;-71
2021/03/04 13:04:42;;;;;;;44.58;25.62;;;;;;;5.41;65.71;99909.37;147208;1147;104531;-73
2021/03/04 13:07:45;;;;;;;51.27;27.93;;;;;;;5.38;64.98;99920.20;147667;1147;104472;-70
2021/03/04 13:10:48;;;;;;;63.97;35.87;;;;;;;5.38;65.13;99922.02;147738;1147;104542;-71
2021/03/04 13:13:51;;;;;;;48.55;28.10;;;;;;;5.36;64.97;99927.44;147484;1146;104454;-70
2021/03/04 13:16:55;;;;;;;54.25;30.05;;;;;;;5.31;65.46;99919.89;147579;1147;104469;-73
2021/03/04 13:19:58;;;;;;;53.27;31.13;;;;;;;5.25;65.10;99938.06;147688;1147;104473;-80
2021/03/04 13:23:01;;;;;;;49.70;27.87;;;;;;;5.14;65.33;99932.81;147694;1147;104473;-73
2021/03/04 13:26:04;;;;;;;41.45;24.57;;;;;;;5.00;65.80;99934.78;147743;1147;104967;-70
2021/03/04 13:29:07;;;;;;;51.07;27.63;;;;;;;5.01;65.86;99933.83;147346;1147;104544;-74
2021/03/04 13:32:10;;;;;;;37.85;21.57;;;;;;;4.92;65.75;99931.93;147619;1147;104479;-75
2021/03/04 13:35:14;;;;;;;37.15;20.55;;;;;;;4.86;66.02;99927.14;147833;1147;104889;-69
2021/03/04 13:38:18;;;;;;;38.20;21.83;;;;;;;4.89;66.16;99937.48;147634;1147;104549;-68
2021/03/04 13:41:21;;;;;;;35.70;20.35;;;;;;;4.73;66.07;99932.57;147328;1147;104526;-69
2021/03/04 13:44:24;;;;;;;37.20;20.82;;;;;;;4.59;66.14;99925.76;147357;1147;104501;-68
2021/03/04 13:47:27;;;;;;;33.33;19.10;;;;;;;4.52;65.77;99932.48;147664;1146;104548;-69
2021/03/04 13:50:30;;;;;;;35.45;19.65;;;;;;;4.44;65.91;99933.09;147246;1147;104590;-71
2021/03/04 13:53:33;;;;;;;31.20;17.75;;;;;;;4.41;66.45;99935.17;147371;1147;104629;-70
2021/03/04 13:56:36;;;;;;;32.93;20.27;;;;;;;4.32;65.82;99934.91;147544;1147;104546;-76